createdAt,value
2019-05-22T00:02:01.284Z,47.50
2019-05-22T00:04:36.152Z,48.27
2019-05-22T00:07:08.161Z,47.07
2019-05-22T00:09:39.780Z,46.90
2019-05-22T00:12:17.511Z,47.10
2019-05-22T00:14:47.177Z,46.97
2019-05-22T00:17:18.014Z,48.47
2019-05-22T00:19:47.837Z,48.03
2019-05-22T00:22:24.025Z,47.70
2019-05-22T00:24:54.548Z,47.63
2019-05-22T00:27:26.561Z,48.17
2019-05-22T00:29:57.421Z,47.33
2019-05-22T00:32:28.438Z,47.20
2019-05-22T00:34:58.252Z,48.00
2019-05-22T00:37:27.421Z,52.57
2019-05-22T00:39:58.046Z,47.97
2019-05-22T00:42:27.941Z,46.37
2019-05-22T00:44:58.836Z,46.67
2019-05-22T00:47:30.023Z,47.30
2019-05-22T00:50:03.968Z,49.87
2019-05-22T00:53:01.856Z,47.37
2019-05-22T00:55:40.141Z,47.20
2019-05-22T00:58:26.801Z,47.80
2019-05-22T01:01:14.468Z,47.43
2019-05-22T01:03:46.041Z,49.23
2019-05-22T01:06:16.523Z,48.17
2019-05-22T01:08:48.275Z,47.10
2019-05-22T01:11:20.637Z,47.50
2019-05-22T01:13:50.356Z,48.17
2019-05-22T01:16:20.943Z,47.80
2019-05-22T01:18:49.868Z,48.67
2019-05-22T01:21:21.615Z,48.10
2019-05-22T01:23:52.485Z,48.90
2019-05-22T01:26:22.778Z,47.57
2019-05-22T01:28:53.105Z,49.73
2019-05-22T01:31:27.424Z,48.00
2019-05-22T01:34:05.633Z,47.47
2019-05-22T01:36:40.422Z,48.27
2019-05-22T01:39:28.173Z,48.80
2019-05-22T01:41:58.956Z,50.60
2019-05-22T01:44:30.546Z,49.40
2019-05-22T01:47:06.605Z,47.20
2019-05-22T01:49:40.805Z,48.10
2019-05-22T01:52:11.522Z,47.00
2019-05-22T01:54:40.601Z,48.57
2019-05-22T01:57:10.717Z,51.70
2019-05-22T01:59:41.598Z,49.43
2019-05-22T02:02:12.646Z,47.77
2019-05-22T02:04:42.450Z,47.30
2019-05-22T02:07:11.801Z,48.50
2019-05-22T02:09:44.177Z,47.17
2019-05-22T02:12:25.236Z,49.33
2019-05-22T02:14:56.098Z,47.50
2019-05-22T02:17:33.092Z,46.90
2019-05-22T02:20:04.336Z,46.87
2019-05-22T02:22:34.297Z,46.63
2019-05-22T02:25:05.277Z,49.83
2019-05-22T02:27:36.370Z,48.60
2019-05-22T02:30:08.101Z,49.43
2019-05-22T02:32:37.870Z,49.47
2019-05-22T02:35:09.405Z,48.83
2019-05-22T02:37:39.184Z,48.73
2019-05-22T02:40:15.215Z,48.27
2019-05-22T02:42:44.999Z,50.67
2019-05-22T02:45:14.343Z,47.57
2019-05-22T02:47:45.306Z,49.40
2019-05-22T02:50:16.878Z,47.00
2019-05-22T02:52:46.834Z,49.13
2019-05-22T02:55:16.777Z,49.10
2019-05-22T02:57:46.540Z,49.43
2019-05-22T03:00:16.797Z,51.30
2019-05-22T03:02:52.026Z,47.87
2019-05-22T03:05:22.775Z,49.37
2019-05-22T03:07:52.753Z,49.33
2019-05-22T03:10:25.235Z,48.07
2019-05-22T03:12:54.187Z,48.67
2019-05-22T03:15:25.833Z,48.40
2019-05-22T03:18:01.657Z,46.73
2019-05-22T03:20:33.911Z,51.87
2019-05-22T03:23:41.941Z,48.20
2019-05-22T03:26:13.348Z,49.67
2019-05-22T03:28:42.869Z,48.30
2019-05-22T03:31:12.714Z,51.80
2019-05-22T03:33:42.891Z,49.80
2019-05-22T03:36:20.942Z,47.50
2019-05-22T03:38:50.605Z,48.40
2019-05-22T03:41:20.765Z,47.97
2019-05-22T03:43:51.085Z,50.33
2019-05-22T03:46:37.998Z,49.00
2019-05-22T03:49:27.492Z,49.80
2019-05-22T03:51:40.273Z,51.50
2019-05-22T03:54:11.524Z,47.43
2019-05-22T03:56:43.226Z,48.87
2019-05-22T03:59:12.534Z,51.60
2019-05-22T04:01:42.824Z,48.50
2019-05-22T04:04:13.850Z,47.90
2019-05-22T04:06:45.138Z,47.87
2019-05-22T04:09:24.895Z,48.03
2019-05-22T04:12:13.313Z,53.03
2019-05-22T04:14:42.745Z,51.37
2019-05-22T04:17:15.012Z,49.90
2019-05-22T04:19:49.914Z,48.80
2019-05-22T04:22:17.504Z,49.27
2019-05-22T04:24:48.978Z,48.47
2019-05-22T04:27:18.709Z,48.67
2019-05-22T04:29:49.855Z,53.47
2019-05-22T04:32:26.698Z,51.17
2019-05-22T04:34:55.906Z,49.17
2019-05-22T04:37:25.090Z,50.17
2019-05-22T04:39:55.951Z,48.87
2019-05-22T04:42:26.958Z,48.57
2019-05-22T04:45:10.864Z,50.00
2019-05-22T04:47:40.422Z,48.17
2019-05-22T04:50:10.704Z,48.80
2019-05-22T04:52:39.766Z,47.63
2019-05-22T04:55:11.221Z,50.10
2019-05-22T04:57:40.862Z,48.07
2019-05-22T05:00:11.463Z,50.53
2019-05-22T05:02:41.069Z,50.83
2019-05-22T05:05:10.997Z,49.80
2019-05-22T05:07:41.762Z,49.93
2019-05-22T05:10:11.840Z,49.10
2019-05-22T05:12:42.308Z,53.37
2019-05-22T05:15:12.184Z,50.00
2019-05-22T05:17:41.080Z,52.00
2019-05-22T05:20:22.088Z,51.97
2019-05-22T05:22:43.339Z,52.10
2019-05-22T05:25:12.974Z,50.40
2019-05-22T05:27:42.256Z,50.60
2019-05-22T05:30:13.083Z,53.30
2019-05-22T05:32:43.045Z,52.83
2019-05-22T05:35:12.707Z,50.70
2019-05-22T05:37:42.781Z,52.77
2019-05-22T05:40:33.672Z,54.60
2019-05-22T05:43:03.552Z,51.63
2019-05-22T05:45:33.771Z,52.50
2019-05-22T05:48:06.305Z,54.10
2019-05-22T05:50:40.179Z,55.80
2019-05-22T05:53:16.217Z,58.10
2019-05-22T05:56:09.374Z,58.23
2019-05-22T05:58:38.816Z,55.40
2019-05-22T06:01:22.471Z,62.47
2019-05-22T06:03:51.548Z,55.60
2019-05-22T06:07:12.032Z,54.90
2019-05-22T06:09:41.874Z,61.00
2019-05-22T06:12:15.865Z,56.20
2019-05-22T06:14:45.515Z,63.83
2019-05-22T06:17:52.679Z,55.90
2019-05-22T06:20:22.981Z,63.50
2019-05-22T06:23:44.343Z,61.37
2019-05-22T06:26:38.266Z,60.10
2019-05-22T06:29:08.103Z,58.10
2019-05-22T06:31:49.545Z,59.93
2019-05-22T06:34:18.754Z,55.37
2019-05-22T06:36:47.708Z,54.97
2019-05-22T06:39:17.360Z,56.27
2019-05-22T06:41:48.340Z,58.90
2019-05-22T06:44:36.257Z,56.80
2019-05-22T06:47:08.299Z,62.83
2019-05-22T06:49:49.041Z,57.00
2019-05-22T06:52:18.981Z,53.93
2019-05-22T06:54:48.329Z,57.50
2019-05-22T06:57:34.879Z,59.47
2019-05-22T07:00:15.369Z,56.47
2019-05-22T07:02:45.413Z,57.10
2019-05-22T07:05:15.075Z,54.00
2019-05-22T07:07:44.341Z,53.57
2019-05-22T07:10:14.521Z,57.43
2019-05-22T07:12:44.162Z,56.20
2019-05-22T07:15:50.481Z,59.60
2019-05-22T07:18:29.761Z,53.97
2019-05-22T07:20:59.623Z,52.07
2019-05-22T07:23:33.446Z,55.03
2019-05-22T07:26:03.464Z,56.97
2019-05-22T07:28:33.345Z,58.07
2019-05-22T07:31:04.284Z,54.20
2019-05-22T07:33:33.785Z,53.47
2019-05-22T07:36:15.945Z,61.03
2019-05-22T07:38:35.108Z,57.13
2019-05-22T07:41:06.021Z,59.83
2019-05-22T07:43:35.242Z,57.60
2019-05-22T07:46:04.130Z,60.50
2019-05-22T07:48:33.657Z,61.63
2019-05-22T07:51:03.343Z,56.13
2019-05-22T07:53:32.295Z,54.13
2019-05-22T07:56:05.053Z,56.80
2019-05-22T07:58:36.163Z,55.13
2019-05-22T08:01:06.379Z,55.67
2019-05-22T08:03:37.265Z,54.67
2019-05-22T08:06:08.442Z,66.13
2019-05-22T08:08:39.614Z,54.97
2019-05-22T08:11:09.447Z,53.77
2019-05-22T08:13:39.939Z,56.90
2019-05-22T08:16:10.475Z,54.17
2019-05-22T08:18:40.391Z,52.17
2019-05-22T08:21:10.766Z,57.70
2019-05-22T08:23:39.899Z,60.13
2019-05-22T08:26:10.837Z,54.10
2019-05-22T08:28:40.832Z,56.47
2019-05-22T08:31:10.882Z,53.30
2019-05-22T08:33:40.108Z,56.30
2019-05-22T08:36:09.453Z,55.40
2019-05-22T08:38:39.229Z,54.33
2019-05-22T08:41:09.958Z,51.07
2019-05-22T08:44:03.346Z,53.40
2019-05-22T08:46:18.492Z,56.30
2019-05-22T08:48:49.314Z,54.30
2019-05-22T08:51:19.127Z,53.17
2019-05-22T08:53:48.983Z,51.87
2019-05-22T08:56:19.056Z,57.00
2019-05-22T08:58:48.421Z,53.57
2019-05-22T09:01:17.383Z,54.50
2019-05-22T09:03:47.472Z,54.33
2019-05-22T09:16:45.732Z,59.30
2019-05-22T09:19:37.008Z,54.43
2019-05-22T09:37:33.124Z,53.87
2019-05-22T09:40:24.515Z,58.53
2019-05-22T09:43:13.075Z,53.03
2019-05-22T09:45:58.729Z,54.27
2019-05-22T09:48:31.753Z,55.07
2019-05-22T09:56:54.821Z,52.67
2019-05-22T10:26:04.580Z,49.57
2019-05-22T10:31:26.480Z,50.60
2019-05-22T10:33:56.173Z,50.50
2019-05-22T10:36:25.661Z,49.23
2019-05-22T14:14:47.021Z,47.90
2019-05-22T14:17:16.839Z,48.50
2019-05-22T14:19:46.688Z,47.93
2019-05-22T14:22:16.507Z,47.27
2019-05-22T14:24:46.122Z,48.20
2019-05-22T14:27:15.403Z,56.80
2019-05-22T14:29:48.388Z,47.40
2019-05-22T14:32:18.827Z,46.77
2019-05-22T14:34:51.051Z,47.37
2019-05-22T14:37:21.957Z,46.97
2019-05-22T14:39:51.931Z,47.17
2019-05-22T14:42:23.279Z,48.20
2019-05-22T14:44:59.963Z,48.00
2019-05-22T14:47:37.616Z,46.80
2019-05-22T14:50:09.597Z,49.07
2019-05-22T14:52:39.992Z,48.17
2019-05-22T14:55:10.826Z,46.80
2019-05-22T14:57:41.088Z,47.83
2019-05-22T15:00:12.064Z,46.87
2019-05-22T15:02:41.576Z,48.73
2019-05-22T15:05:12.938Z,49.70
2019-05-22T15:07:42.492Z,48.83
2019-05-22T15:10:16.761Z,47.83
2019-05-22T15:12:43.871Z,48.83
2019-05-22T15:15:13.752Z,47.30
2019-05-22T15:17:43.237Z,46.60
2019-05-22T15:20:17.048Z,46.40
2019-05-22T15:22:46.318Z,49.07
2019-05-22T15:25:16.481Z,47.47
2019-05-22T15:27:46.199Z,47.27
2019-05-22T15:30:15.680Z,47.90
2019-05-22T15:32:46.023Z,49.13
2019-05-22T15:35:15.467Z,46.97
2019-05-22T15:37:46.472Z,47.07
2019-05-22T15:40:17.592Z,47.70
2019-05-22T15:42:47.530Z,50.23
2019-05-22T15:45:21.924Z,47.20
2019-05-22T15:47:56.309Z,47.23
2019-05-22T15:50:27.546Z,46.50
2019-05-22T15:53:01.101Z,46.90
2019-05-22T15:55:34.211Z,47.40
2019-05-22T15:58:05.417Z,46.93
2019-05-22T16:00:37.213Z,47.17
2019-05-22T16:03:12.517Z,46.87
2019-05-22T16:05:43.565Z,48.40
2019-05-22T16:08:15.728Z,47.57
2019-05-22T16:10:47.399Z,47.13
2019-05-22T16:13:20.404Z,47.90
2019-05-22T16:15:51.812Z,47.40
2019-05-22T16:18:24.644Z,47.30
2019-05-22T16:20:55.262Z,46.40
2019-05-22T16:23:25.661Z,46.93
2019-05-22T16:28:47.943Z,47.17
2019-05-22T16:31:19.596Z,47.13
2019-05-22T16:33:51.822Z,48.63
2019-05-22T16:36:23.021Z,47.00
2019-05-22T16:42:59.984Z,51.03
2019-05-22T16:45:30.863Z,47.07
2019-05-22T16:48:01.378Z,47.70
2019-05-22T16:50:31.380Z,46.20
2019-05-22T16:53:02.947Z,46.93
2019-05-22T16:55:32.833Z,47.27
2019-05-22T16:58:02.214Z,47.27
2019-05-22T17:00:32.271Z,47.50
2019-05-22T17:03:02.349Z,47.20
2019-05-22T17:05:31.801Z,48.00
2019-05-22T17:08:01.118Z,49.10
2019-05-22T17:10:31.100Z,48.77
2019-05-22T17:13:02.915Z,47.60
2019-05-22T17:15:33.875Z,47.07
2019-05-22T17:18:04.198Z,47.93
2019-05-22T17:20:33.807Z,47.37
2019-05-22T17:23:03.135Z,49.80
2019-05-22T17:25:32.818Z,47.73
2019-05-22T17:28:03.418Z,49.10
2019-05-22T17:30:34.906Z,48.70
2019-05-22T17:33:04.203Z,48.47
2019-05-22T17:35:34.242Z,47.70
2019-05-22T17:38:05.277Z,47.43
2019-05-22T17:40:36.533Z,49.33
2019-05-22T17:43:09.176Z,47.67
2019-05-22T17:45:40.149Z,48.03
2019-05-22T17:48:10.848Z,47.93
2019-05-22T17:50:39.862Z,48.40
2019-05-22T17:53:09.273Z,49.83
2019-05-22T17:55:39.192Z,50.90
2019-05-22T17:58:08.664Z,49.50
2019-05-22T18:00:42.603Z,49.70
2019-05-22T18:03:12.074Z,48.97
2019-05-22T18:05:41.979Z,48.60
2019-05-22T18:08:11.637Z,50.10
2019-05-22T18:10:42.873Z,50.27
2019-05-22T18:13:14.157Z,49.47
2019-05-22T18:15:43.786Z,50.10
2019-05-22T18:18:12.807Z,48.57
2019-05-22T18:20:44.271Z,48.40
2019-05-22T18:23:13.760Z,51.85
2019-05-22T18:25:44.066Z,49.50
2019-05-22T18:28:13.810Z,50.80
2019-05-22T18:30:43.766Z,50.20
2019-05-22T18:33:13.578Z,50.07
2019-05-22T18:35:42.704Z,48.50
2019-05-22T18:38:11.713Z,48.40
2019-05-22T18:40:41.059Z,48.80
2019-05-22T18:43:10.932Z,49.97
2019-05-22T18:45:40.898Z,49.20
2019-05-22T18:48:10.479Z,49.33
2019-05-22T18:50:39.921Z,52.07
2019-05-22T18:53:09.830Z,49.07
2019-05-22T18:55:39.504Z,51.93
2019-05-22T18:58:08.702Z,50.23
2019-05-22T19:00:37.780Z,51.47
2019-05-22T19:03:07.622Z,52.63
2019-05-22T19:05:37.520Z,52.40
2019-05-22T19:08:06.735Z,50.10
2019-05-22T19:10:35.800Z,47.37
2019-05-22T19:13:05.237Z,50.30
2019-05-22T19:15:34.329Z,51.50
2019-05-22T19:18:03.290Z,48.87
2019-05-22T19:20:32.334Z,50.43
2019-05-22T19:23:01.950Z,49.57
2019-05-22T19:25:31.061Z,48.03
2019-05-22T19:28:00.850Z,52.40
2019-05-22T19:30:30.917Z,48.80
2019-05-22T19:33:00.410Z,48.70
2019-05-22T19:35:29.902Z,50.77
2019-05-22T19:37:59.292Z,53.67
2019-05-22T19:40:28.988Z,48.87
2019-05-22T19:42:58.614Z,48.10
2019-05-22T19:45:30.889Z,50.33
2019-05-22T19:47:59.574Z,50.27
2019-05-22T19:50:29.118Z,51.20
2019-05-22T19:53:15.837Z,62.90
2019-05-22T19:55:31.318Z,51.30
2019-05-22T19:58:01.617Z,50.30
2019-05-22T20:00:31.699Z,51.27
2019-05-22T20:03:02.169Z,49.60
2019-05-22T20:05:33.234Z,50.83
2019-05-22T20:08:02.221Z,54.20
2019-05-22T20:10:32.108Z,50.37
2019-05-22T20:13:01.889Z,50.23
2019-05-22T20:15:31.298Z,49.93
2019-05-22T20:18:00.915Z,50.97
2019-05-22T20:20:30.930Z,49.60
2019-05-22T20:23:00.820Z,48.80
2019-05-22T20:25:30.339Z,53.47
2019-05-22T20:28:02.689Z,84.30
2019-05-22T20:30:33.019Z,63.37
2019-05-22T20:33:02.308Z,51.50
2019-05-22T20:35:32.638Z,51.10
2019-05-22T20:38:02.625Z,48.53
2019-05-22T20:40:32.481Z,48.90
2019-05-22T20:43:01.820Z,48.40
2019-05-22T20:45:30.661Z,49.90
2019-05-22T20:48:12.447Z,51.20
2019-05-22T20:50:41.583Z,50.50
2019-05-22T20:53:12.707Z,51.20
2019-05-22T20:55:42.520Z,48.67
2019-05-22T20:58:13.861Z,49.10
2019-05-22T21:00:43.619Z,52.27
2019-05-22T21:03:13.812Z,48.53
2019-05-22T21:05:44.681Z,49.20
2019-05-22T21:08:16.090Z,52.30
2019-05-22T21:10:48.143Z,49.40
2019-05-22T21:13:19.125Z,50.33
2019-05-22T21:15:49.610Z,51.03
2019-05-22T21:18:20.605Z,51.10
2019-05-22T21:20:55.111Z,51.47
2019-05-22T21:23:22.836Z,50.90
2019-05-22T21:25:52.319Z,49.67
2019-05-22T21:28:21.360Z,63.13
2019-05-22T21:30:51.911Z,61.90
2019-05-22T21:33:21.667Z,49.70
2019-05-22T21:35:50.626Z,50.67
2019-05-22T21:38:20.640Z,48.60
2019-05-22T21:40:50.788Z,49.43
2019-05-22T21:43:19.958Z,47.83
2019-05-22T21:45:49.343Z,50.87
2019-05-22T21:48:19.502Z,51.53
2019-05-22T21:50:48.468Z,50.97
2019-05-22T21:53:18.062Z,49.33
2019-05-22T21:55:47.465Z,48.90
2019-05-22T21:58:18.204Z,48.57
2019-05-22T22:01:21.533Z,52.47
2019-05-22T22:04:01.137Z,51.80
2019-05-22T22:06:33.155Z,56.13
2019-05-22T22:09:01.224Z,55.57
2019-05-22T22:11:31.638Z,49.57
2019-05-22T22:14:01.411Z,47.70
2019-05-22T22:16:30.796Z,51.70
2019-05-22T22:19:01.514Z,51.80
2019-05-22T22:21:30.681Z,47.90
2019-05-22T22:23:59.858Z,48.67
2019-05-22T22:26:29.013Z,48.50
2019-05-22T22:28:58.096Z,49.53
2019-05-22T22:31:29.694Z,52.20
2019-05-22T22:34:06.941Z,48.47
2019-05-22T22:36:36.890Z,48.30
2019-05-22T22:39:10.435Z,51.87
2019-05-22T22:41:39.221Z,51.23
2019-05-22T22:44:10.282Z,52.77
2019-05-22T22:46:45.763Z,48.10
2019-05-22T22:49:18.493Z,50.03
2019-05-22T22:51:48.902Z,49.57
2019-05-22T22:54:20.192Z,48.07
2019-05-22T22:56:49.457Z,49.87
2019-05-22T22:59:19.290Z,49.40
2019-05-22T23:01:52.853Z,49.07
2019-05-22T23:04:23.790Z,50.53
2019-05-22T23:06:54.586Z,50.17
2019-05-22T23:09:25.225Z,47.57
2019-05-22T23:11:55.215Z,53.23
2019-05-22T23:14:25.669Z,47.90
2019-05-22T23:17:13.777Z,50.40
2019-05-22T23:19:46.592Z,50.67
2019-05-22T23:22:20.299Z,49.70
2019-05-22T23:24:51.946Z,48.60
2019-05-22T23:27:23.269Z,49.40
2019-05-22T23:29:54.014Z,49.27
2019-05-22T23:32:23.936Z,48.77
2019-05-22T23:34:53.295Z,51.23
2019-05-22T23:37:23.905Z,48.67
2019-05-22T23:39:57.018Z,49.63
2019-05-22T23:42:31.260Z,49.80
2019-05-22T23:45:02.618Z,48.80
2019-05-22T23:47:32.658Z,50.67
2019-05-22T23:50:02.458Z,47.10
2019-05-22T23:52:32.394Z,48.87
2019-05-22T23:55:02.588Z,48.80
2019-05-22T23:57:31.992Z,48.80
